Time;durP1;ratioP1;P1;durP2;ratioP2;P2;SDS_P1;SDS_P2;PMS_P1;PMS_P2;Temp;Humidity;BMP_temperature;BMP_pressure;BME280_temperature;BME280_humidity;BME280_pressure;Samples;Min_cycle;Max_cycle;Signal;HPM_P1;HPM_P2
2023/08/06 00:00:29;;;;;;;0.88;0.45;;;;;;;;;;5132001;27;20485;-80
2023/08/06 00:02:55;;;;;;;1.48;0.60;;;;;;;;;;5113766;27;20110;-80
2023/08/06 00:05:21;;;;;;;0.68;0.30;;;;;;;;;;5110979;28;20533;-80
2023/08/06 00:07:48;;;;;;;2.47;0.57;;;;;;;;;;5118990;27;20019;-80
2023/08/06 00:10:14;;;;;;;0.93;0.38;;;;;;;;;;5092465;27;20039;-80
2023/08/06 00:12:40;;;;;;;0.30;0.30;;;;;;;;;;5096786;28;20409;-80
2023/08/06 00:15:06;;;;;;;0.90;0.43;;;16.90;87.40;;;;;;5128095;27;20023;-80
2023/08/06 00:17:32;;;;;;;0.68;0.40;;;;;;;;;;5118238;27;20032;-80
2023/08/06 00:19:58;;;;;;;0.98;0.47;;;;;;;;;;5118953;27;20109;-80
2023/08/06 00:22:24;;;;;;;0.52;0.43;;;;;;;;;;5122870;27;20046;-80
2023/08/06 00:24:50;;;;;;;0.85;0.52;;;;;;;;;;5112690;27;20024;-80
2023/08/06 00:27:16;;;;;;;0.95;0.47;;;;;;;;;;5113330;27;20051;-80
2023/08/06 00:29:42;;;;;;;0.98;0.52;;;;;;;;;;5109080;27;20058;-80
2023/08/06 00:32:08;;;;;;;0.50;0.50;;;;;;;;;;5129521;27;20023;-80
2023/08/06 00:34:34;;;;;;;0.50;0.43;;;;;;;;;;5108299;27;20030;-80
2023/08/06 00:36:59;;;;;;;0.65;0.65;;;16.90;73.50;;;;;;5110481;27;20015;-80
2023/08/06 00:39:25;;;;;;;0.40;0.40;;;16.70;86.40;;;;;;5100026;27;20033;-80
2023/08/06 00:41:51;;;;;;;0.82;0.60;;;;;;;;;;5112323;27;20027;-80
2023/08/06 00:44:17;;;;;;;1.27;0.65;;;;;;;;;;5104812;27;20031;-80
2023/08/06 00:46:43;;;;;;;0.47;0.43;;;;;;;;;;5131172;27;20029;-80
2023/08/06 00:49:09;;;;;;;0.45;0.45;;;;;;;;;;5107434;27;20649;-80
2023/08/06 00:51:35;;;;;;;0.60;0.40;;;;;;;;;;5128279;27;20098;-80
2023/08/06 00:54:02;;;;;;;1.13;0.40;;;;;;;;;;5112607;27;20020;-80
2023/08/06 00:56:28;;;;;;;1.52;0.63;;;;;;;;;;5123759;27;20511;-80
2023/08/06 00:58:54;;;;;;;1.45;0.50;;;;;;;;;;5117210;27;20050;-80
2023/08/06 01:01:20;;;;;;;2.15;0.60;;;;;;;;;;5118137;27;20087;-80
2023/08/06 01:03:46;;;;;;;1.33;0.63;;;16.80;68.90;;;;;;5110498;27;20114;-79
2023/08/06 01:06:12;;;;;;;3.03;1.05;;;;;;;;;;5112829;27;20023;-79
2023/08/06 01:09:01;;;;;;;0.88;0.70;;;16.70;67.60;;;;;;5127468;27;20027;-80
2023/08/06 01:11:42;;;;;;;4.47;1.00;;;16.60;67.90;;;;;;5102492;28;20031;-79
2023/08/06 01:14:23;;;;;;;3.00;1.00;;;16.60;68.20;;;;;;5092615;27;20028;-79
2023/08/06 01:16:50;;;;;;;3.70;0.52;;;16.50;68.30;;;;;;5117407;27;20027;-80
2023/08/06 01:19:21;;;;;;;4.63;0.93;;;16.40;68.40;;;;;;5121303;27;20023;-80
2023/08/06 01:21:47;;;;;;;1.50;0.73;;;;;;;;;;5105507;27;20486;-80
2023/08/06 01:24:13;;;;;;;3.03;0.80;;;;;;;;;;5098040;27;20050;-80
2023/08/06 01:27:34;;;;;;;1.15;1.05;;;16.60;74.30;;;;;;5105581;28;20026;-80
2023/08/06 01:30:40;;;;;;;1.60;0.63;;;16.50;68.10;;;;;;5062024;28;20075;-80
2023/08/06 01:33:09;;;;;;;;;;;16.60;68.30;;;;;;5005850;28;20141;-80
2023/08/06 01:35:37;;;;;;;5.95;1.17;;;16.40;68.10;;;;;;5026302;28;20294;-80
2023/08/06 01:38:03;;;;;;;2.80;0.93;;;;;;;;;;5017348;28;20025;-80
2023/08/06 01:40:29;;;;;;;3.10;1.00;;;16.20;86.30;;;;;;5017768;28;20069;-80
2023/08/06 01:42:55;;;;;;;2.17;0.73;;;;;;;;;;5026360;28;20115;-80
2023/08/06 01:45:21;;;;;;;1.05;0.70;;;;;;;;;;5025817;28;20507;-80
2023/08/06 01:47:47;;;;;;;4.22;2.17;;;;;;;;;;5026372;28;20045;-80
2023/08/06 01:50:13;;;;;;;6.65;1.20;;;;;;;;;;5025658;28;20050;-80
2023/08/06 01:52:39;;;;;;;6.28;1.05;;;;;;;;;;5026302;28;20569;-79
2023/08/06 01:55:05;;;;;;;5.85;1.02;;;;;;;;;;5025757;28;20033;-79
2023/08/06 01:57:31;;;;;;;2.63;1.08;;;;;;;;;;5025805;28;20039;-80
2023/08/06 01:59:57;;;;;;;4.97;1.35;;;;;;;;;;5026038;28;20037;-80
2023/08/06 02:02:23;;;;;;;4.60;0.90;;;;;;;;;;5028438;28;20037;-80
2023/08/06 02:04:49;;;;;;;3.40;1.05;;;;;;;;;;4999572;28;20040;-81
2023/08/06 02:07:15;;;;;;;7.97;1.10;;;16.00;87.60;;;;;;5095197;27;20491;-80
2023/08/06 02:09:41;;;;;;;11.93;1.52;;;;;;;;;;5093270;28;20508;-80
2023/08/06 02:12:07;;;;;;;2.63;0.82;;;16.10;85.00;;;;;;5114805;27;20072;-80
2023/08/06 02:14:33;;;;;;;8.00;0.90;;;;;;;;;;5113472;28;20031;-80
2023/08/06 02:16:59;;;;;;;1.25;1.13;;;;;;;;;;5106291;27;20035;-80
2023/08/06 02:19:25;;;;;;;2.05;1.30;;;;;;;;;;5129970;27;20031;-80
2023/08/06 02:21:51;;;;;;;4.70;1.17;;;;;;;;;;5116759;27;20494;-80
2023/08/06 02:24:17;;;;;;;2.30;1.38;;;;;;;;;;5124636;27;20126;-80
2023/08/06 02:26:43;;;;;;;4.85;0.90;;;;;;;;;;5118370;27;20023;-80
2023/08/06 02:29:09;;;;;;;1.92;0.73;;;;;;;;;;5106699;27;20060;-80
2023/08/06 02:31:35;;;;;;;6.80;1.33;;;;;;;;;;5101098;27;20083;-80
2023/08/06 02:34:01;;;;;;;2.05;0.75;;;;;;;;;;5125518;27;20067;-80
2023/08/06 02:36:29;;;;;;;3.58;0.68;;;;;;;;;;5127443;27;20031;-80
2023/08/06 02:38:55;;;;;;;5.25;1.10;;;;;;;;;;5120069;27;20157;-80
2023/08/06 02:41:21;;;;;;;8.35;1.05;;;;;;;;;;5112549;27;20076;-80
2023/08/06 02:43:47;;;;;;;1.40;1.13;;;;;;;;;;5110256;27;20494;-80
2023/08/06 02:46:13;;;;;;;1.95;0.60;;;;;;;;;;5133360;27;20023;-80
2023/08/06 02:48:39;;;;;;;1.55;0.90;;;;;;;;;;5118469;27;20474;-80
2023/08/06 02:51:05;;;;;;;7.28;0.90;;;;;;;;;;5092058;28;20056;-80
2023/08/06 02:53:31;;;;;;;1.70;1.00;;;;;;;;;;5101851;27;20453;-80
2023/08/06 02:55:58;;;;;;;5.60;1.13;;;;;;;;;;5133536;27;20023;-80
2023/08/06 02:58:24;;;;;;;2.47;0.80;;;;;;;;;;5109934;27;20192;-80
2023/08/06 03:01:02;;;;;;;4.75;0.90;;;16.00;68.70;;;;;;5095884;27;20028;-80
2023/08/06 03:03:28;;;;;;;0.98;0.65;;;;;;;;;;5098255;28;20070;-80
2023/08/06 03:05:54;;;;;;;4.35;0.88;;;;;;;;;;5130648;27;20015;-80
2023/08/06 03:08:22;;;;;;;2.50;1.08;;;;;;;;;;5109771;27;20617;-80
2023/08/06 03:10:48;;;;;;;6.25;1.23;;;;;;;;;;5102268;27;20470;-80
2023/08/06 03:13:14;;;;;;;2.80;1.17;;;;;;;;;;5091885;28;20752;-81
2023/08/06 03:15:40;;;;;;;4.63;1.08;;;;;;;;;;5091481;28;20073;-80
2023/08/06 03:18:06;;;;;;;1.27;0.75;;;;;;;;;;5091993;27;20398;-80
2023/08/06 03:20:33;;;;;;;1.48;0.98;;;;;;;;;;5091801;28;20301;-80
2023/08/06 03:22:59;;;;;;;8.55;1.23;;;;;;;;;;5091279;28;20513;-80
2023/08/06 03:25:25;;;;;;;2.45;1.38;;;;;;;;;;5097374;28;20031;-80
2023/08/06 03:27:51;;;;;;;5.45;1.15;;;;;;;;;;5113549;27;20020;-80
2023/08/06 03:30:16;;;;;;;7.05;1.30;;;;;;;;;;5095102;28;20046;-80
2023/08/06 03:32:42;;;;;;;12.27;1.10;;;;;;;;;;5093729;27;20020;-80
2023/08/06 03:35:08;;;;;;;3.70;0.93;;;;;;;;;;5096642;27;20449;-81
2023/08/06 03:37:34;;;;;;;9.25;1.25;;;;;;;;;;5114157;27;20063;-80
2023/08/06 03:40:00;;;;;;;5.32;1.13;;;;;;;;;;5107505;27;20055;-80
2023/08/06 03:42:26;;;;;;;5.10;1.23;;;;;;;;;;5132150;27;20082;-80
2023/08/06 03:44:52;;;;;;;2.30;0.75;;;;;;;;;;5123498;27;20493;-80
2023/08/06 03:47:18;;;;;;;1.17;0.55;;;;;;;;;;5128854;27;20023;-80
2023/08/06 03:49:44;;;;;;;8.80;1.33;;;;;;;;;;5123534;27;20096;-80
2023/08/06 03:52:10;;;;;;;2.92;1.23;;;;;;;;;;5101220;27;20017;-80
2023/08/06 03:54:36;;;;;;;9.82;1.88;;;;;;;;;;5099755;27;20024;-80
2023/08/06 03:57:02;;;;;;;6.55;1.25;;;;;;;;;;5110013;27;20382;-80
2023/08/06 03:59:28;;;;;;;4.47;1.35;;;;;;;;;;5123501;27;20036;-80
2023/08/06 04:01:54;;;;;;;8.32;1.60;;;;;;;;;;5115837;27;20040;-80
2023/08/06 04:04:20;;;;;;;5.80;1.17;;;;;;;;;;5126841;27;20196;-81
2023/08/06 04:06:46;;;;;;;1.67;1.10;;;;;;;;;;5115400;27;20020;-80
2023/08/06 04:09:13;;;;;;;2.75;1.20;;;;;;;;;;5091636;27;20035;-80
2023/08/06 04:11:39;;;;;;;3.17;1.60;;;;;;;;;;5109156;27;20027;-80
2023/08/06 04:14:05;;;;;;;3.05;0.95;;;;;;;;;;5131856;27;20409;-80
2023/08/06 04:16:31;;;;;;;5.72;1.27;;;;;;;;;;5117100;27;20019;-80
2023/08/06 04:18:58;;;;;;;2.75;1.13;;;;;;;;;;5090993;28;20531;-80
2023/08/06 04:21:24;;;;;;;2.40;1.08;;;;;;;;;;5099299;27;20173;-80
2023/08/06 04:23:50;;;;;;;8.95;1.35;;;;;;;;;;5131333;27;20142;-79
2023/08/06 04:26:16;;;;;;;0.85;0.75;;;;;;;;;;5125694;27;20011;-79
2023/08/06 04:28:42;;;;;;;2.83;1.52;;;;;;;;;;5095289;28;20037;-80
2023/08/06 04:31:08;;;;;;;6.00;0.70;;;;;;;;;;5107187;27;20020;-80
2023/08/06 04:33:34;;;;;;;4.13;0.80;;;;;;;;;;5098857;27;20036;-80
2023/08/06 04:36:00;;;;;;;1.98;0.98;;;;;;;;;;5098967;27;20069;-80
2023/08/06 04:38:26;;;;;;;2.63;0.60;;;;;;;;;;5092484;28;20042;-80
2023/08/06 04:40:52;;;;;;;0.60;0.60;;;;;;;;;;5095061;27;20397;-80
2023/08/06 04:43:18;;;;;;;3.70;1.20;;;;;;;;;;5111459;27;20043;-80
2023/08/06 04:45:51;;;;;;;1.00;0.77;;;15.50;70.70;;;;;;5124722;27;20027;-80
2023/08/06 04:48:17;;;;;;;0.93;0.60;;;;;;;;;;5112990;27;20561;-80
2023/08/06 04:50:48;;;;;;;4.93;0.80;;;15.50;69.60;;;;;;5092452;27;20486;-80
2023/08/06 04:53:14;;;;;;;2.88;1.02;;;;;;;;;;5107851;27;20497;-80
2023/08/06 04:55:40;;;;;;;3.03;0.82;;;;;;;;;;5130122;27;20464;-80
2023/08/06 04:58:06;;;;;;;11.55;0.93;;;;;;;;;;5114721;27;20030;-80
2023/08/06 05:00:33;;;;;;;3.35;1.02;;;15.60;68.20;;;;;;5090014;28;20016;-80
2023/08/06 05:03:00;;;;;;;2.15;0.77;;;15.60;68.40;;;;;;5102775;27;20035;-80
2023/08/06 05:05:26;;;;;;;6.68;0.75;;;;;;;;;;5095784;28;20028;-80
2023/08/06 05:07:54;;;;;;;5.68;0.75;;;15.70;68.20;;;;;;5117930;27;20384;-80
2023/08/06 05:10:20;;;;;;;3.08;0.60;;;;;;;;;;5089623;28;20024;-80
2023/08/06 05:12:46;;;;;;;8.38;0.95;;;;;;;;;;5098396;27;20520;-80
2023/08/06 05:15:12;;;;;;;2.40;0.80;;;;;;;;;;5091580;28;20049;-79
2023/08/06 05:17:38;;;;;;;0.93;0.63;;;;;;;;;;5106759;27;20048;-80
2023/08/06 05:20:04;;;;;;;1.55;0.73;;;;;;;;;;5119951;27;20030;-80
2023/08/06 05:22:30;;;;;;;4.40;0.82;;;;;;;;;;5106915;27;20066;-80
2023/08/06 05:24:56;;;;;;;0.75;0.47;;;;;;;;;;5106998;27;20526;-80
2023/08/06 05:27:22;;;;;;;0.82;0.80;;;;;;;;;;5094453;27;20027;-80
2023/08/06 05:29:48;;;;;;;0.45;0.40;;;;;;;;;;5109361;27;20055;-80
2023/08/06 05:32:14;;;;;;;0.52;0.40;;;;;;;;;;5125057;27;20015;-80
2023/08/06 05:34:41;;;;;;;3.03;1.17;;;;;;;;;;5090444;28;20399;-80
2023/08/06 05:37:07;;;;;;;4.80;0.87;;;;;;;;;;5089839;28;20019;-80
2023/08/06 05:39:33;;;;;;;0.65;0.50;;;;;;;;;;5101293;27;20024;-80
2023/08/06 05:41:59;;;;;;;2.15;0.50;;;;;;;;;;5108783;28;20042;-80
2023/08/06 05:44:25;;;;;;;0.77;0.70;;;;;;;;;;5115586;27;20031;-80
2023/08/06 05:46:53;;;;;;;3.78;0.70;;;;;;;;;;5087471;28;20032;-79
2023/08/06 05:49:19;;;;;;;2.88;0.70;;;;;;;;;;5097641;27;20018;-80
2023/08/06 05:51:45;;;;;;;0.55;0.35;;;;;;;;;;5130214;27;20107;-80
2023/08/06 05:54:11;;;;;;;2.95;0.60;;;;;;;;;;5117843;27;20056;-80
2023/08/06 05:56:36;;;;;;;1.75;0.85;;;15.60;85.30;;;;;;5111891;28;20034;-80
2023/08/06 05:59:02;;;;;;;6.55;0.80;;;;;;;;;;5107796;28;20415;-79
2023/08/06 06:01:28;;;;;;;0.80;0.55;;;;;;;;;;5120135;28;20058;-80
2023/08/06 06:03:54;;;;;;;1.60;0.40;;;;;;;;;;5121523;28;20476;-80
2023/08/06 06:06:20;;;;;;;0.40;0.40;;;;;;;;;;5097942;28;20028;-80
2023/08/06 06:08:46;;;;;;;2.72;0.45;;;;;;;;;;5107919;28;20124;-80
2023/08/06 06:11:12;;;;;;;1.20;0.60;;;;;;;;;;5109499;28;20024;-81
2023/08/06 06:13:38;;;;;;;0.93;0.50;;;;;;;;;;5089960;28;20072;-80
2023/08/06 06:16:05;;;;;;;2.03;1.23;;;;;;;;;;5112043;28;20035;-80
2023/08/06 06:18:31;;;;;;;0.63;0.50;;;;;;;;;;5090124;28;20016;-80
2023/08/06 06:20:57;;;;;;;0.68;0.50;;;;;;;;;;5102055;28;20019;-80
2023/08/06 06:23:23;;;;;;;3.85;0.60;;;;;;;;;;5109665;28;20028;-80
2023/08/06 06:25:53;;;;;;;0.43;0.43;;;15.80;68.30;;;;;;5094266;28;20405;-80
2023/08/06 06:28:19;;;;;;;0.50;0.50;;;;;;;;;;5109755;28;20028;-80
2023/08/06 06:30:45;;;;;;;0.52;0.40;;;;;;;;;;5100958;28;20048;-80
2023/08/06 06:33:11;;;;;;;1.00;0.43;;;;;;;;;;5104524;28;20055;-80
2023/08/06 06:35:37;;;;;;;3.45;0.60;;;;;;;;;;5094574;28;20058;-80
2023/08/06 06:38:03;;;;;;;1.45;0.50;;;;;;;;;;5128065;28;20084;-80
2023/08/06 06:40:29;;;;;;;9.73;1.52;;;;;;;;;;5120655;28;20027;-80
2023/08/06 06:42:55;;;;;;;0.43;0.43;;;;;;;;;;5112323;28;20062;-80
2023/08/06 06:45:21;;;;;;;1.10;0.55;;;;;;;;;;5107562;28;20024;-80
2023/08/06 06:47:47;;;;;;;2.38;0.40;;;17.20;81.60;;;;;;5116900;27;20023;-80
2023/08/06 06:50:12;;;;;;;0.50;0.30;;;17.10;76.00;;;;;;5124128;27;20024;-80
2023/08/06 06:52:38;;;;;;;0.32;0.32;;;;;;;;;;5112343;27;20341;-81
2023/08/06 06:55:04;;;;;;;0.55;0.40;;;17.30;65.40;;;;;;5092545;27;20031;-80
2023/08/06 06:57:30;;;;;;;0.52;0.45;;;;;;;;;;5115345;27;20506;-80
2023/08/06 06:59:56;;;;;;;1.85;0.65;;;;;;;;;;5092859;27;20111;-80
2023/08/06 07:02:22;;;;;;;0.35;0.35;;;;;;;;;;5109871;27;20500;-80
2023/08/06 07:04:48;;;;;;;0.73;0.52;;;;;;;;;;5133362;27;20080;-80
2023/08/06 07:07:14;;;;;;;0.43;0.43;;;;;;;;;;5121025;27;20021;-80
2023/08/06 07:09:40;;;;;;;0.70;0.70;;;;;;;;;;5112612;28;20054;-80
2023/08/06 07:12:06;;;;;;;0.85;0.60;;;17.90;61.90;;;;;;5106531;27;20362;-80
2023/08/06 07:14:32;;;;;;;0.68;0.30;;;;;;;;;;5092046;28;20043;-80
2023/08/06 07:16:58;;;;;;;5.50;0.60;;;;;;;;;;5100390;27;20031;-80
2023/08/06 07:19:24;;;;;;;0.85;0.45;;;;;;;;;;5128606;27;20023;-80
2023/08/06 07:21:50;;;;;;;0.65;0.32;;;;;;;;;;5124068;27;20011;-80
2023/08/06 07:24:16;;;;;;;0.90;0.50;;;;;;;;;;5101187;27;20509;-81
2023/08/06 07:26:42;;;;;;;0.75;0.65;;;;;;;;;;5109403;27;20011;-80
2023/08/06 07:29:08;;;;;;;0.77;0.63;;;;;;;;;;5101294;28;20464;-79
2023/08/06 07:31:34;;;;;;;1.85;0.80;;;;;;;;;;5096283;27;20019;-80
2023/08/06 07:34:00;;;;;;;2.22;1.17;;;;;;;;;;5092888;27;20561;-80
2023/08/06 07:36:26;;;;;;;4.32;1.17;;;;;;;;;;5093978;27;20020;-80
2023/08/06 07:38:55;;;;;;;0.40;0.40;;;;;;;;;;5114358;27;20536;-79
2023/08/06 07:41:22;;;;;;;4.03;0.60;;;19.70;56.80;;;;;;5093300;27;20028;-81
2023/08/06 07:43:49;;;;;;;0.73;0.55;;;;;;;;;;5113701;27;20036;-80
2023/08/06 07:46:15;;;;;;;2.60;0.57;;;;;;;;;;5132424;27;20031;-80
2023/08/06 07:48:41;;;;;;;1.00;0.65;;;;;;;;;;5106495;27;20095;-80
2023/08/06 07:51:06;;;;;;;2.22;0.52;;;19.40;69.30;;;;;;5131888;27;20023;-80
2023/08/06 07:53:32;;;;;;;1.67;0.73;;;;;;;;;;5121864;27;20394;-80
2023/08/06 07:55:58;;;;;;;1.70;0.50;;;;;;;;;;5096596;27;20066;-80
2023/08/06 07:58:25;;;;;;;0.40;0.40;;;19.90;55.60;;;;;;5090768;28;20024;-80
2023/08/06 08:00:51;;;;;;;0.37;0.30;;;;;;;;;;5128545;27;20042;-80
2023/08/06 08:03:17;;;;;;;1.40;0.60;;;;;;;;;;5127508;27;20038;-80
2023/08/06 08:05:43;;;;;;;1.27;0.50;;;19.40;55.60;;;;;;5115449;27;20020;-80
2023/08/06 08:08:09;;;;;;;1.02;0.45;;;19.30;62.90;;;;;;5113191;27;20030;-80
2023/08/06 08:10:36;;;;;;;3.20;0.40;;;19.90;73.60;;;;;;5094643;28;20024;-80
2023/08/06 08:13:02;;;;;;;2.60;0.52;;;19.50;55.60;;;;;;5110180;27;20127;-80
2023/08/06 08:15:29;;;;;;;0.30;0.30;;;19.50;55.10;;;;;;5108977;27;20035;-80
2023/08/06 08:17:55;;;;;;;1.73;0.50;;;;;;;;;;5090950;28;20051;-81
2023/08/06 08:20:21;;;;;;;2.65;0.80;;;;;;;;;;5108860;27;20023;-80
2023/08/06 08:22:47;;;;;;;3.72;0.60;;;;;;;;;;5128374;27;20031;-80
2023/08/06 08:25:13;;;;;;;1.80;0.63;;;;;;;;;;5117342;27;20478;-80
2023/08/06 08:27:39;;;;;;;2.50;0.68;;;;;;;;;;5111543;27;20063;-80
2023/08/06 08:30:06;;;;;;;0.60;0.50;;;20.20;70.80;;;;;;5105827;27;20116;-80
2023/08/06 08:32:32;;;;;;;0.65;0.45;;;;;;;;;;5130170;27;20031;-80
2023/08/06 08:34:58;;;;;;;0.65;0.40;;;;;;;;;;5110293;27;20437;-80
2023/08/06 08:37:24;;;;;;;0.63;0.35;;;;;;;;;;5131610;27;20412;-80
2023/08/06 08:39:50;;;;;;;0.73;0.52;;;;;;;;;;5122697;27;20041;-80
2023/08/06 08:42:16;;;;;;;1.20;0.52;;;;;;;;;;5092410;27;20064;-80
2023/08/06 08:44:43;;;;;;;2.35;0.70;;;;;;;;;;5109045;27;20113;-80
2023/08/06 08:47:10;;;;;;;0.50;0.40;;;21.30;52.00;;;;;;5131161;27;20019;-80
2023/08/06 08:49:36;;;;;;;0.77;0.73;;;;;;;;;;5130614;27;20030;-80
2023/08/06 08:52:06;;;;;;;1.10;0.30;;;22.50;50.30;;;;;;5102046;27;20066;-79
2023/08/06 08:54:33;;;;;;;2.22;0.50;;;22.80;46.90;;;;;;5098667;27;20712;-80
2023/08/06 08:56:58;;;;;;;0.52;0.45;;;22.50;58.20;;;;;;5115186;27;20055;-80
2023/08/06 08:59:24;;;;;;;1.52;0.73;;;;;;;;;;5108325;27;20065;-80
2023/08/06 09:01:51;;;;;;;1.73;0.60;;;22.80;47.70;;;;;;5111103;27;20046;-80
2023/08/06 09:04:18;;;;;;;3.33;0.80;;;23.00;47.70;;;;;;5095103;27;20030;-80
2023/08/06 09:06:46;;;;;;;0.98;0.50;;;22.90;47.40;;;;;;5107802;27;20356;-80
2023/08/06 09:09:16;;;;;;;1.98;0.60;;;22.60;47.20;;;;;;5129421;27;20080;-80
2023/08/06 09:11:49;;;;;;;3.40;0.80;;;22.60;50.40;;;;;;5112493;27;20535;-80
2023/08/06 09:14:15;;;;;;;2.33;0.60;;;;;;;;;;5129786;27;20092;-80
2023/08/06 09:16:41;;;;;;;0.85;0.45;;;;;;;;;;5104223;28;20481;-80
2023/08/06 09:19:08;;;;;;;1.70;0.40;;;21.70;48.40;;;;;;5110133;28;20481;-80
2023/08/06 09:21:37;;;;;;;0.55;0.55;;;17.40;45.50;;;;;;5097339;27;20031;-80
2023/08/06 09:24:16;;;;;;;1.98;0.57;;;21.00;49.10;;;;;;5130854;27;20113;-80
2023/08/06 09:26:44;;;;;;;2.47;0.50;;;21.00;48.70;;;;;;5095919;27;20138;-80
2023/08/06 09:29:14;;;;;;;3.72;0.73;;;21.30;47.90;;;;;;5130527;27;20039;-80
2023/08/06 09:31:44;;;;;;;0.63;0.50;;;21.50;47.70;;;;;;5121546;27;20031;-80
2023/08/06 09:34:17;;;;;;;1.85;0.85;;;22.00;46.60;;;;;;5102756;28;20027;-80
2023/08/06 09:36:45;;;;;;;0.50;0.50;;;22.60;45.70;;;;;;5104204;27;20088;-80
2023/08/06 09:39:15;;;;;;;0.98;0.50;;;22.80;60.30;;;;;;5129101;27;20034;-79
2023/08/06 09:41:42;;;;;;;3.90;0.95;;;22.90;44.20;;;;;;5121199;27;20031;-80
2023/08/06 09:44:30;;;;;;;0.70;0.63;;;22.90;44.60;;;;;;5100411;27;20684;-80
2023/08/06 09:46:58;;;;;;;0.95;0.50;;;22.70;45.00;;;;;;5103619;27;20115;-80
2023/08/06 09:49:33;;;;;;;1.17;0.60;;;22.70;45.60;;;;;;5094209;28;20024;-80
2023/08/06 09:52:00;;;;;;;2.30;0.60;;;;;;;;;;5114544;27;20020;-80
2023/08/06 09:54:27;;;;;;;3.17;0.50;;;22.20;45.40;;;;;;5096289;27;20440;-80
2023/08/06 09:56:56;;;;;;;1.27;0.93;;;22.20;61.10;;;;;;5103024;28;20019;-80
2023/08/06 09:59:26;;;;;;;1.20;0.75;;;23.20;45.20;;;;;;5100032;28;20486;-80
2023/08/06 10:01:52;;;;;;;1.52;1.02;;;;;;;;;;5099404;28;20052;-79
2023/08/06 10:04:18;;;;;;;2.65;0.68;;;;;;;;;;5104675;28;20024;-80
2023/08/06 10:06:50;;;;;;;3.15;0.32;;;26.90;38.90;;;;;;5094690;28;20405;-80
2023/08/06 10:09:16;;;;;;;0.75;0.30;;;;;;;;;;5110436;28;20030;-80
2023/08/06 10:11:50;;;;;;;3.07;0.97;;;30.70;36.40;;;;;;5111974;28;20022;-80
2023/08/06 10:14:33;;;;;;;5.40;0.55;;;31.10;46.30;;;;;;5098599;28;20027;-80
2023/08/06 10:17:00;;;;;;;3.22;0.60;;;29.60;34.00;;;;;;5106979;28;20031;-80
2023/08/06 10:19:27;;;;;;;2.35;0.40;;;28.20;35.50;;;;;;5110517;28;20020;-80
2023/08/06 10:22:13;;;;;;;1.02;0.40;;;26.90;36.60;;;;;;5092203;27;20556;-80
2023/08/06 10:24:52;;;;;;;3.70;0.45;;;25.60;52.20;;;;;;5103202;28;20039;-80
2023/08/06 10:27:33;;;;;;;0.98;0.35;;;24.70;38.80;;;;;;5101513;27;20038;-80
2023/08/06 10:30:23;;;;;;;1.52;0.60;;;24.30;54.60;;;;;;5115808;27;20070;-80
2023/08/06 10:32:51;;;;;;;0.65;0.40;;;24.20;40.10;;;;;;5126078;27;20099;-80
2023/08/06 10:35:48;;;;;;;0.82;0.40;;;24.40;53.80;;;;;;5133850;27;20026;-80
2023/08/06 10:38:16;;;;;;;1.73;0.55;;;24.20;54.90;;;;;;5122508;27;20408;-80
2023/08/06 10:40:54;;;;;;;0.85;0.40;;;24.10;40.50;;;;;;5104825;27;20051;-80
2023/08/06 10:43:30;;;;;;;4.63;0.40;;;27.50;51.80;;;;;;5104731;27;20393;-80
2023/08/06 10:45:57;;;;;;;1.17;0.60;;;33.10;44.30;;;;;;5132761;27;20344;-80
2023/08/06 10:48:31;;;;;;;1.17;0.47;;;38.80;30.00;;;;;;5123076;27;20146;-80
2023/08/06 10:50:57;;;;;;;1.40;0.43;;;42.90;35.80;;;;;;5119760;27;20019;-80
2023/08/06 10:53:22;;;;;;;1.10;0.50;;;45.30;27.20;;;;;;5125890;27;20032;-80
2023/08/06 10:55:48;;;;;;;0.87;0.40;;;;;;;;;;5114361;27;20035;-80
2023/08/06 10:58:16;;;;;;;5.43;0.22;;;39.70;26.70;;;;;;5130321;27;20023;-80
2023/08/06 11:00:42;;;;;;;2.08;0.40;;;36.50;31.90;;;;;;5110591;27;20059;-80
2023/08/06 11:03:09;;;;;;;1.38;0.35;;;;;;;;;;5129934;27;20048;-80
2023/08/06 11:05:35;;;;;;;0.88;0.38;;;40.60;26.90;;;;;;5110266;27;20043;-80
2023/08/06 11:08:01;;;;;;;1.85;0.30;;;;;;;;;;5132551;27;20492;-80
2023/08/06 11:10:28;;;;;;;1.17;0.10;;;36.60;37.50;;;;;;5101174;27;20024;-80
2023/08/06 11:12:53;;;;;;;0.70;0.20;;;33.70;32.00;;;;;;5115960;27;20027;-80
2023/08/06 11:15:21;;;;;;;7.37;0.20;;;31.20;29.40;;;;;;5104822;27;20028;-80
2023/08/06 11:17:47;;;;;;;0.50;0.20;;;29.90;44.50;;;;;;5133018;27;20031;-80
2023/08/06 11:20:13;;;;;;;0.98;0.25;;;;;;;;;;5109090;27;20028;-80
2023/08/06 11:22:39;;;;;;;1.90;0.90;;;30.20;44.90;;;;;;5130603;27;20076;-80
2023/08/06 11:25:06;;;;;;;3.55;0.20;;;30.70;43.50;;;;;;5116568;27;20077;-80
2023/08/06 11:27:32;;;;;;;3.13;0.43;;;;;;;;;;5112039;28;20432;-80
2023/08/06 11:29:58;;;;;;;1.17;0.33;;;;;;;;;;5114049;27;20055;-80
2023/08/06 11:32:24;;;;;;;4.43;1.60;;;;;;;;;;5104150;27;20077;-80
2023/08/06 11:34:50;;;;;;;5.22;0.47;;;;;;;;;;5096141;27;20111;-80
2023/08/06 11:37:16;;;;;;;1.17;0.57;;;25.60;37.80;;;;;;5109214;27;20106;-81
2023/08/06 11:39:48;;;;;;;0.45;0.38;;;26.70;34.30;;;;;;5094185;27;20031;-80
2023/08/06 11:42:14;;;;;;;2.92;0.30;;;;;;;;;;5115096;27;20108;-80
2023/08/06 11:44:44;;;;;;;0.20;0.20;;;28.40;33.30;;;;;;5117918;27;20506;-80
2023/08/06 11:47:13;;;;;;;0.95;0.20;;;28.90;31.90;;;;;;5116605;27;20031;-80
2023/08/06 11:49:48;;;;;;;1.25;0.20;;;28.50;32.60;;;;;;5129228;27;20481;-80
2023/08/06 11:52:20;;;;;;;0.45;0.25;;;27.20;39.60;;;;;;5102587;27;20084;-80
2023/08/06 11:55:11;;;;;;;1.85;0.90;;;26.10;34.00;;;;;;5128873;27;20015;-79
2023/08/06 11:57:44;;;;;;;1.38;0.35;;;26.00;34.80;;;;;;5109312;27;20057;-80
2023/08/06 12:00:13;;;;;;;2.03;0.50;;;26.40;34.70;;;;;;5128762;27;20115;-80
2023/08/06 12:02:41;;;;;;;1.15;0.40;;;28.00;33.80;;;;;;5109604;27;20038;-80
2023/08/06 12:05:07;;;;;;;3.42;0.50;;;;;;;;;;5124831;27;20015;-80
2023/08/06 12:07:37;;;;;;;1.45;0.35;;;32.20;30.20;;;;;;5109402;27;20042;-79
2023/08/06 12:10:03;;;;;;;3.53;0.73;;;;;;;;;;5131910;27;20027;-80
2023/08/06 12:12:29;;;;;;;0.53;0.30;;;;;;;;;;5103919;27;20598;-80
2023/08/06 12:14:56;;;;;;;0.30;0.20;;;;;;;;;;5111537;28;20459;-80
2023/08/06 12:17:22;;;;;;;2.28;0.35;;;;;;;;;;5104214;27;20134;-80
2023/08/06 12:19:48;;;;;;;1.67;0.40;;;;;;;;;;5131692;27;20572;-80
2023/08/06 12:22:15;;;;;;;3.58;0.40;;;;;;;;;;5108449;27;20290;-80
2023/08/06 12:24:42;;;;;;;1.10;0.30;;;24.20;36.70;;;;;;5128599;27;20326;-80
2023/08/06 12:27:08;;;;;;;;;;;24.10;37.40;;;;;;5107499;27;20074;-80
2023/08/06 12:29:33;;;;;;;0.47;0.20;;;;;;;;;;5123856;27;19919;-80
2023/08/06 12:31:59;;;;;;;0.57;0.50;;;25.60;51.10;;;;;;5118509;27;20099;-80
2023/08/06 12:34:25;;;;;;;0.55;0.40;;;;;;;;;;5092751;27;20020;-80
2023/08/06 12:36:51;;;;;;;1.17;0.40;;;27.20;49.50;;;;;;5097693;27;20406;-80
2023/08/06 12:39:17;;;;;;;0.50;0.30;;;;;;;;;;5109140;27;20111;-80
2023/08/06 12:41:45;;;;;;;1.65;0.60;;;;;;;;;;5096130;27;20463;-80
2023/08/06 12:44:12;;;;;;;0.82;0.32;;;;;;;;;;5099550;28;20087;-80
2023/08/06 12:46:38;;;;;;;2.37;0.40;;;;;;;;;;5110609;27;20133;-80
2023/08/06 12:49:04;;;;;;;0.73;0.50;;;;;;;;;;5108468;27;20257;-80
2023/08/06 12:51:31;;;;;;;2.60;0.30;;;26.50;35.00;;;;;;5130187;27;20516;-80
2023/08/06 12:53:56;;;;;;;0.47;0.25;;;26.50;49.30;;;;;;5116811;27;20024;-80
2023/08/06 12:56:22;;;;;;;0.52;0.30;;;26.40;40.40;;;;;;5090432;28;20032;-80
2023/08/06 12:58:48;;;;;;;1.15;0.28;;;;;;;;;;5115979;27;20055;-80
2023/08/06 13:01:14;;;;;;;1.23;0.40;;;;;;;;;;5089811;28;20123;-80
2023/08/06 13:03:40;;;;;;;1.75;0.35;;;;;;;;;;5113346;27;20027;-80
2023/08/06 13:06:07;;;;;;;2.80;0.35;;;;;;;;;;5092155;27;20024;-80
2023/08/06 13:08:33;;;;;;;1.65;0.50;;;;;;;;;;5108942;27;20027;-79
2023/08/06 13:10:59;;;;;;;0.50;0.40;;;;;;;;;;5096858;27;20375;-79
2023/08/06 13:13:26;;;;;;;0.93;0.30;;;26.30;50.20;;;;;;5101104;27;20015;-79
2023/08/06 13:15:52;;;;;;;1.23;0.60;;;;;;;;;;5091401;28;20501;-80
2023/08/06 13:18:18;;;;;;;2.58;0.45;;;;;;;;;;5109997;27;20027;-80
2023/08/06 13:20:46;;;;;;;0.40;0.30;;;;;;;;;;5105465;27;20042;-79
2023/08/06 13:23:15;;;;;;;0.60;0.60;;;;;;;;;;5093665;27;20101;-80
2023/08/06 13:25:41;;;;;;;0.80;0.30;;;;;;;;;;5117988;27;20115;-80
2023/08/06 13:28:07;;;;;;;1.10;0.50;;;;;;;;;;5111318;27;20020;-79
2023/08/06 13:30:35;;;;;;;0.35;0.30;;;;;;;;;;5107219;27;20057;-80
2023/08/06 13:33:01;;;;;;;0.55;0.22;;;;;;;;;;5128682;27;20084;-80
2023/08/06 13:35:28;;;;;;;3.08;0.35;;;;;;;;;;5107703;27;20043;-80
2023/08/06 13:37:55;;;;;;;0.70;0.50;;;;;;;;;;5111892;27;20474;-80
2023/08/06 13:40:21;;;;;;;2.10;0.50;;;;;;;;;;5103505;27;20055;-80
2023/08/06 13:42:46;;;;;;;0.50;0.35;;;23.30;52.20;;;;;;5130461;27;20073;-81
2023/08/06 13:45:12;;;;;;;0.43;0.30;;;;;;;;;;5103670;27;20031;-80
2023/08/06 13:47:38;;;;;;;5.82;0.70;;;;;;;;;;5128919;27;20791;-80
2023/08/06 13:50:04;;;;;;;1.63;0.65;;;23.80;41.20;;;;;;5103325;27;20013;-79
2023/08/06 13:52:30;;;;;;;1.08;0.50;;;;;;;;;;5119274;27;20402;-80
2023/08/06 13:54:56;;;;;;;1.45;0.50;;;;;;;;;;5113702;28;20026;-80
2023/08/06 13:57:22;;;;;;;2.80;0.68;;;24.70;42.50;;;;;;5103550;28;20031;-80
2023/08/06 13:59:48;;;;;;;2.17;0.68;;;;;;;;;;5118548;27;20539;-80
2023/08/06 14:02:14;;;;;;;2.05;0.50;;;;;;;;;;5114845;28;20493;-80